OIFK  Kashan  Airport

Iran

Add Bookmark
ICAO OIFK
Type Airport
Status Operational
Latitude
33° 53' 43" N
33.895302
Longitude
51° 34' 37" E
51.577000
Local (DST + 5) UTC (GMT + 4)
May 26, 2015 09:57 May 26, 2015 05:27
Sunrise-Sunset Local UTC
Begin Civil Twilight 05:26 00:56
Sunrise 05:54 01:24
Sunset 08:06 15:36
End Civil Twilight 08:35 16:05
VFR
VFR
MVFR
MVFR
IFR
VFR
LIFR
VFR
Unknown
Unavailable

Current Weather

METAR Observed VFR
OIFK 252000Z 00000KT CAVOK 29/M03 Q1013 Mon, May 25, 2015 @ 20:00 UTC
(9 Hours, 27 Minutes ago)
Visual Flight Rules
Wind Visibility Conditions
Calm 10 km or more
  • No significant weather
Temperatures Readings Precipitation
Current Temp
29°C
84°F
Dewpoint
-3°C
27°F
Humidity 12%
Altimeter 29.91" Hg
Sea Level Pressure 1,013 mb
Field Elevation
982 m
3,222 ft
None Recorded
-
-

CheckWX.com is intended as a tool to help pilots better visualize weather data. It is not intended as a substitute for an official weather briefing obtained from a Flight Service Station. CheckWX.com does not meet the FAA requirements for an official pre-flight weather briefing. Therefore, it's important that pilots still call and obtain an official FSS pre-flight weather briefing.

© 2007-2015 CheckWX.com
05:27:32 UTC